createdAt,value
2022-09-20T00:01:33.660Z,1.40
2022-09-20T00:04:05.490Z,1.90
2022-09-20T00:06:34.522Z,1.50
2022-09-20T00:09:03.291Z,1.30
2022-09-20T00:11:34.290Z,1.30
2022-09-20T00:14:06.000Z,1.30
2022-09-20T00:16:39.027Z,1.60
2022-09-20T00:19:08.055Z,1.50
2022-09-20T00:21:37.690Z,1.60
2022-09-20T00:24:06.064Z,1.50
2022-09-20T00:26:33.646Z,1.60
2022-09-20T00:29:01.613Z,1.50
2022-09-20T00:31:29.400Z,1.50
2022-09-20T00:34:17.491Z,2.10
2022-09-20T00:36:45.532Z,1.50
2022-09-20T00:39:15.552Z,1.40
2022-09-20T00:41:43.587Z,1.50
2022-09-20T00:44:50.202Z,1.40
2022-09-20T00:47:26.637Z,1.80
2022-09-20T00:50:19.118Z,1.70
2022-09-20T00:52:49.057Z,1.40
2022-09-20T00:55:17.198Z,1.40
2022-09-20T00:57:46.160Z,1.30
2022-09-20T01:00:14.522Z,1.50
2022-09-20T01:02:52.448Z,1.30
2022-09-20T01:05:20.159Z,1.40
2022-09-20T01:07:49.846Z,1.80
2022-09-20T01:10:17.630Z,1.40
2022-09-20T01:12:46.143Z,1.60
2022-09-20T01:15:15.811Z,1.50
2022-09-20T01:17:48.424Z,1.40
2022-09-20T01:20:26.103Z,1.60
2022-09-20T01:23:05.521Z,1.30
2022-09-20T01:26:21.753Z,1.40
2022-09-20T01:28:58.475Z,1.20
2022-09-20T01:31:33.138Z,1.50
2022-09-20T01:34:09.693Z,1.50
2022-09-20T01:37:11.838Z,1.80
2022-09-20T01:40:10.849Z,1.70
2022-09-20T01:42:48.258Z,1.80
2022-09-20T01:45:23.171Z,1.50
2022-09-20T01:48:29.252Z,1.70
2022-09-20T01:51:18.324Z,1.60
2022-09-20T01:54:10.436Z,1.30
2022-09-20T01:57:06.928Z,1.30
2022-09-20T02:00:06.108Z,1.40
2022-09-20T02:02:54.581Z,1.60
2022-09-20T02:05:34.017Z,1.50
2022-09-20T02:08:52.050Z,1.50
2022-09-20T02:11:22.293Z,1.30
2022-09-20T02:14:17.090Z,1.50
2022-09-20T02:16:51.181Z,1.40
2022-09-20T02:19:52.989Z,1.60
2022-09-20T02:22:48.451Z,1.50
2022-09-20T02:25:34.532Z,1.60
2022-09-20T02:28:23.576Z,1.70
2022-09-20T02:31:17.175Z,1.60
2022-09-20T02:34:02.845Z,1.60
2022-09-20T02:37:16.677Z,1.30
2022-09-20T02:40:32.095Z,1.40
2022-09-20T02:43:18.953Z,1.80
2022-09-20T02:46:45.810Z,1.60
2022-09-20T02:49:53.343Z,1.60
2022-09-20T02:53:24.548Z,1.70
2022-09-20T02:56:09.215Z,1.50
2022-09-20T02:59:03.874Z,1.20
2022-09-20T03:01:59.530Z,1.70
2022-09-20T03:05:01.082Z,1.70
2022-09-20T03:07:50.145Z,1.40
2022-09-20T03:10:28.687Z,1.50
2022-09-20T03:13:15.215Z,1.50
2022-09-20T03:16:10.449Z,1.50
2022-09-20T03:19:33.793Z,1.70
2022-09-20T03:22:23.040Z,1.60
2022-09-20T03:25:30.623Z,1.30
2022-09-20T03:28:11.689Z,1.60
2022-09-20T03:31:02.710Z,1.50
2022-09-20T03:33:54.433Z,1.30
2022-09-20T03:36:51.765Z,1.50
2022-09-20T03:39:53.670Z,1.40
2022-09-20T03:42:30.378Z,1.60
2022-09-20T03:45:41.290Z,1.60
2022-09-20T03:49:04.413Z,1.40
2022-09-20T03:51:43.503Z,1.20
2022-09-20T03:54:35.359Z,1.50
2022-09-20T03:58:06.888Z,1.30
2022-09-20T04:01:28.197Z,1.50
2022-09-20T04:04:01.587Z,1.50
2022-09-20T04:06:52.498Z,1.50
2022-09-20T04:09:44.560Z,1.60
2022-09-20T04:12:44.608Z,1.40
2022-09-20T04:15:45.404Z,1.40
2022-09-20T04:18:31.249Z,1.50
2022-09-20T04:21:05.889Z,1.60
2022-09-20T04:23:50.111Z,1.40
2022-09-20T04:26:26.476Z,1.80
2022-09-20T04:29:03.471Z,1.40
2022-09-20T04:31:41.488Z,1.20
2022-09-20T04:34:45.905Z,1.40
2022-09-20T04:37:26.884Z,1.60
2022-09-20T04:40:44.364Z,1.40
2022-09-20T04:44:09.044Z,1.80
2022-09-20T04:47:05.987Z,1.70
2022-09-20T04:50:19.378Z,2.20
2022-09-20T04:53:42.954Z,1.80
2022-09-20T04:56:41.683Z,1.50
2022-09-20T04:59:10.688Z,1.50
2022-09-20T05:02:18.237Z,1.50
2022-09-20T05:05:35.872Z,1.60
2022-09-20T05:08:52.470Z,1.80
2022-09-20T05:11:27.626Z,1.80
2022-09-20T05:14:39.521Z,1.80
2022-09-20T05:17:56.131Z,1.60
2022-09-20T05:20:48.515Z,1.40
2022-09-20T05:23:28.786Z,1.40
2022-09-20T05:26:26.137Z,1.70
2022-09-20T05:29:10.144Z,1.50
2022-09-20T05:31:51.090Z,1.70
2022-09-20T05:34:51.086Z,1.60
2022-09-20T05:37:39.923Z,2.00
2022-09-20T05:40:30.731Z,2.00
2022-09-20T05:43:06.379Z,2.20
2022-09-20T05:46:31.331Z,1.50
2022-09-20T05:49:17.700Z,2.10
2022-09-20T05:52:10.529Z,1.40
2022-09-20T05:55:11.804Z,1.70
2022-09-20T05:58:18.461Z,2.10
2022-09-20T06:00:53.907Z,1.60
2022-09-20T06:03:36.242Z,2.00
2022-09-20T06:06:31.735Z,2.50
2022-09-20T06:09:10.262Z,2.60
2022-09-20T06:12:04.845Z,3.00
2022-09-20T06:14:48.950Z,3.80
2022-09-20T06:18:11.549Z,11.10
2022-09-20T06:21:07.421Z,6.00
2022-09-20T06:23:36.269Z,6.40
2022-09-20T06:26:10.965Z,6.50
2022-09-20T06:28:48.495Z,12.70
2022-09-20T06:31:17.063Z,18.00
2022-09-20T06:34:03.583Z,16.40
2022-09-20T06:36:54.087Z,14.20
2022-09-20T06:40:00.671Z,14.90
2022-09-20T06:42:29.602Z,16.20
2022-09-20T06:44:57.081Z,15.20
2022-09-20T06:47:26.169Z,15.20
2022-09-20T06:49:53.602Z,11.60
2022-09-20T06:52:22.999Z,9.20
2022-09-20T06:54:54.275Z,10.10
2022-09-20T06:57:30.758Z,9.80
2022-09-20T06:59:58.107Z,9.90
2022-09-20T07:02:27.199Z,10.00
2022-09-20T07:04:55.354Z,10.60
2022-09-20T07:07:22.717Z,9.10
2022-09-20T07:09:50.030Z,7.40
2022-09-20T07:12:18.218Z,7.20
2022-09-20T07:14:45.659Z,6.40
2022-09-20T07:17:14.713Z,4.90
2022-09-20T07:19:42.028Z,3.70
2022-09-20T07:22:09.508Z,3.30
2022-09-20T07:24:36.885Z,3.30
2022-09-20T07:27:07.802Z,3.10
2022-09-20T07:29:35.596Z,2.90
2022-09-20T07:32:03.629Z,4.50
2022-09-20T07:34:32.120Z,3.80
2022-09-20T07:37:02.617Z,2.80
2022-09-20T07:39:30.061Z,2.90
2022-09-20T07:41:57.593Z,2.60
2022-09-20T07:44:24.977Z,3.50
2022-09-20T07:47:00.498Z,3.10
2022-09-20T07:49:32.145Z,3.80
2022-09-20T07:51:59.507Z,3.10
2022-09-20T07:54:30.175Z,3.00
2022-09-20T07:56:57.615Z,3.70
2022-09-20T07:59:25.976Z,3.00
2022-09-20T08:01:53.392Z,3.00
2022-09-20T08:04:20.757Z,3.00
2022-09-20T08:06:48.195Z,3.50
2022-09-20T08:09:15.637Z,3.80
2022-09-20T08:11:43.605Z,3.50
2022-09-20T08:14:17.277Z,3.90
2022-09-20T08:16:48.275Z,3.40
2022-09-20T08:19:21.936Z,4.80
2022-09-20T08:21:52.600Z,3.60
2022-09-20T08:24:20.947Z,3.20
2022-09-20T08:26:48.824Z,3.70
2022-09-20T08:29:16.244Z,3.80
2022-09-20T08:31:44.448Z,3.40
2022-09-20T08:34:15.059Z,4.10
2022-09-20T08:36:46.778Z,3.50
2022-09-20T08:42:10.135Z,3.50
2022-09-20T08:44:59.326Z,3.00
2022-09-20T08:47:35.868Z,3.50
2022-09-20T08:50:11.510Z,3.30
2022-09-20T08:52:40.688Z,3.50
2022-09-20T08:55:39.664Z,3.60
2022-09-20T08:58:12.066Z,3.60
2022-09-20T09:00:40.913Z,3.20
2022-09-20T09:03:13.789Z,2.90
2022-09-20T09:05:49.997Z,3.00
2022-09-20T09:08:21.347Z,3.70
2022-09-20T09:10:59.861Z,3.10
2022-09-20T09:13:35.060Z,3.70
2022-09-20T09:16:14.934Z,4.10
2022-09-20T09:18:46.069Z,3.70
2022-09-20T09:21:27.465Z,4.20
2022-09-20T09:24:02.752Z,3.10
2022-09-20T09:26:38.820Z,2.80
2022-09-20T09:29:20.767Z,2.60
2022-09-20T09:31:51.897Z,3.10
2022-09-20T09:34:34.759Z,3.20
2022-09-20T09:37:02.308Z,2.60
2022-09-20T09:39:33.225Z,2.80
2022-09-20T09:42:01.126Z,3.00
2022-09-20T09:44:33.800Z,2.30
2022-09-20T09:47:01.991Z,2.50
2022-09-20T09:49:36.400Z,2.00
2022-09-20T09:52:24.749Z,2.10
2022-09-20T09:55:03.866Z,2.40
2022-09-20T09:57:56.030Z,3.30
2022-09-20T10:00:27.341Z,2.70
2022-09-20T10:03:20.933Z,2.10
2022-09-20T10:06:21.574Z,1.70
2022-09-20T10:09:03.936Z,2.10
2022-09-20T10:11:52.615Z,1.80
2022-09-20T10:14:56.500Z,1.60
2022-09-20T10:17:52.367Z,1.50
2022-09-20T10:20:58.045Z,2.20
2022-09-20T10:24:02.768Z,2.80
2022-09-20T10:26:59.011Z,2.50
2022-09-20T10:29:46.257Z,2.80
2022-09-20T10:33:09.813Z,1.70
2022-09-20T10:36:07.389Z,1.50
2022-09-20T10:39:05.301Z,2.00
2022-09-20T10:42:12.353Z,2.00
2022-09-20T10:45:01.283Z,2.10
2022-09-20T10:48:01.387Z,1.60
2022-09-20T10:50:52.965Z,1.60
2022-09-20T10:53:55.606Z,1.70
2022-09-20T10:56:31.180Z,1.80
2022-09-20T10:59:42.271Z,1.70
2022-09-20T11:02:27.820Z,1.80
2022-09-20T11:05:14.589Z,1.30
2022-09-20T11:08:08.512Z,1.60
2022-09-20T11:10:52.247Z,2.00
2022-09-20T11:13:33.963Z,2.70
2022-09-20T11:16:29.542Z,2.00
2022-09-20T11:19:27.487Z,1.80
2022-09-20T11:22:07.613Z,2.20
2022-09-20T11:24:42.910Z,1.60
2022-09-20T11:27:29.593Z,1.60
2022-09-20T11:30:08.583Z,1.30
2022-09-20T11:32:58.952Z,1.60
2022-09-20T11:35:42.896Z,1.70
2022-09-20T11:38:36.573Z,1.50
2022-09-20T11:41:09.559Z,1.20
2022-09-20T11:43:41.984Z,1.60
2022-09-20T11:46:15.744Z,3.00
2022-09-20T11:48:53.072Z,2.00
2022-09-20T11:51:39.672Z,2.70
2022-09-20T11:54:23.275Z,1.80
2022-09-20T11:56:53.711Z,1.80
2022-09-20T11:59:43.936Z,2.00
2022-09-20T12:02:28.385Z,1.70
2022-09-20T12:04:56.626Z,2.00
2022-09-20T12:07:35.061Z,1.50
2022-09-20T12:10:33.793Z,2.20
2022-09-20T12:13:05.901Z,1.40
2022-09-20T12:15:39.706Z,1.40
2022-09-20T12:18:37.953Z,1.40
2022-09-20T12:21:16.164Z,1.50
2022-09-20T12:23:53.660Z,1.50
2022-09-20T12:26:21.053Z,1.50
2022-09-20T12:28:58.786Z,1.70
2022-09-20T12:31:29.148Z,1.80
2022-09-20T12:34:10.523Z,1.50
2022-09-20T12:36:43.213Z,1.70
2022-09-20T12:39:17.587Z,2.10
2022-09-20T12:42:12.109Z,1.80
2022-09-20T12:44:49.978Z,2.20
2022-09-20T12:47:35.513Z,2.10
2022-09-20T12:50:33.971Z,1.90
2022-09-20T12:53:04.518Z,2.30
2022-09-20T12:55:56.263Z,1.60
2022-09-20T12:58:44.295Z,1.50
2022-09-20T13:01:14.268Z,1.70
2022-09-20T13:03:45.552Z,1.60
2022-09-20T13:06:16.622Z,1.40
2022-09-20T13:09:08.605Z,1.80
2022-09-20T13:11:42.474Z,1.80
2022-09-20T13:14:24.422Z,2.90
2022-09-20T13:17:13.888Z,2.60
2022-09-20T13:19:50.078Z,2.50
2022-09-20T13:22:33.012Z,2.00
2022-09-20T13:25:05.516Z,2.20
2022-09-20T13:27:36.335Z,1.90
2022-09-20T13:30:26.924Z,1.70
2022-09-20T13:32:55.102Z,2.60
2022-09-20T13:35:24.878Z,1.80
2022-09-20T13:37:57.610Z,2.30
2022-09-20T13:41:09.519Z,2.70
2022-09-20T13:43:40.915Z,2.10
2022-09-20T13:46:13.129Z,2.00
2022-09-20T13:48:40.882Z,1.90
2022-09-20T13:51:26.369Z,1.80
2022-09-20T13:53:54.681Z,1.50
2022-09-20T13:56:28.498Z,1.70
2022-09-20T13:58:59.989Z,1.50
2022-09-20T14:01:31.606Z,1.50
2022-09-20T14:04:07.712Z,1.50
2022-09-20T14:06:35.875Z,1.50
2022-09-20T14:09:11.103Z,1.50
2022-09-20T14:11:39.559Z,1.70
2022-09-20T14:14:09.370Z,1.50
2022-09-20T14:16:45.123Z,1.40
2022-09-20T14:19:18.061Z,1.70
2022-09-20T14:21:46.199Z,1.60
2022-09-20T14:24:13.816Z,1.70
2022-09-20T14:26:43.359Z,1.30
2022-09-20T14:29:30.632Z,1.70
2022-09-20T14:32:04.388Z,1.70
2022-09-20T14:34:31.960Z,1.90
2022-09-20T14:37:35.251Z,1.40
2022-09-20T14:40:18.818Z,1.40
2022-09-20T14:42:50.025Z,1.70
2022-09-20T14:45:41.253Z,1.50
2022-09-20T14:48:11.710Z,1.60
2022-09-20T14:50:45.847Z,1.70
2022-09-20T14:53:23.086Z,1.50
2022-09-20T14:55:58.147Z,1.70
2022-09-20T14:58:26.352Z,1.30
2022-09-20T15:01:06.160Z,1.60
2022-09-20T15:03:39.738Z,1.40
2022-09-20T15:06:13.068Z,1.50
2022-09-20T15:08:46.158Z,1.40
2022-09-20T15:11:16.429Z,1.30
2022-09-20T15:13:44.095Z,1.60
2022-09-20T15:16:17.733Z,1.50
2022-09-20T15:18:45.244Z,2.20
2022-09-20T15:21:13.053Z,1.50
2022-09-20T15:23:40.579Z,1.80
2022-09-20T15:26:10.580Z,1.50
2022-09-20T15:28:37.961Z,1.70
2022-09-20T15:31:05.377Z,1.40
2022-09-20T15:33:33.350Z,1.70
2022-09-20T15:36:03.014Z,2.10
2022-09-20T15:38:30.697Z,1.60
2022-09-20T15:41:04.183Z,1.80
2022-09-20T15:43:32.498Z,1.90
2022-09-20T15:46:19.689Z,1.90
2022-09-20T15:48:47.089Z,1.50
2022-09-20T15:51:15.527Z,1.90
2022-09-20T15:53:55.420Z,1.60
2022-09-20T15:56:28.336Z,1.50
2022-09-20T15:59:01.498Z,1.70
2022-09-20T16:01:38.188Z,1.60
2022-09-20T16:04:08.813Z,1.70
2022-09-20T16:06:38.420Z,1.50
2022-09-20T16:09:07.486Z,1.70
2022-09-20T16:11:35.525Z,1.60
2022-09-20T16:14:03.257Z,1.60
2022-09-20T16:16:38.963Z,1.50
2022-09-20T16:19:20.758Z,1.60
2022-09-20T16:21:58.318Z,1.80
2022-09-20T16:24:30.582Z,1.90
2022-09-20T16:27:00.836Z,1.60
2022-09-20T16:29:30.075Z,1.70
2022-09-20T16:31:59.052Z,2.00
2022-09-20T16:34:35.696Z,1.70
2022-09-20T16:37:11.938Z,2.00
2022-09-20T16:39:40.882Z,1.80
2022-09-20T16:42:12.379Z,2.00
2022-09-20T16:44:45.785Z,2.00
2022-09-20T16:47:21.884Z,2.00
2022-09-20T16:49:50.318Z,1.70
2022-09-20T16:52:17.768Z,1.70
2022-09-20T16:54:45.829Z,1.70
2022-09-20T16:57:15.670Z,1.90
2022-09-20T16:59:43.246Z,2.00
2022-09-20T17:02:12.515Z,2.10
2022-09-20T17:04:40.302Z,1.80
2022-09-20T17:07:08.647Z,1.80
2022-09-20T17:09:36.084Z,1.90
2022-09-20T17:12:04.324Z,1.90
2022-09-20T17:14:31.697Z,2.10
2022-09-20T17:16:59.028Z,1.80
2022-09-20T17:19:26.757Z,1.80
2022-09-20T17:21:54.229Z,2.10
2022-09-20T17:24:23.248Z,1.80
2022-09-20T17:26:51.962Z,2.00
2022-09-20T17:29:20.777Z,1.90
2022-09-20T17:31:55.082Z,2.10
2022-09-20T17:34:22.911Z,2.20
2022-09-20T17:36:50.844Z,2.20
2022-09-20T17:39:18.776Z,2.70
2022-09-20T17:41:49.352Z,2.00
2022-09-20T17:44:17.284Z,2.40
2022-09-20T17:46:49.558Z,2.70
2022-09-20T17:49:22.350Z,2.60
2022-09-20T17:51:52.922Z,2.40
2022-09-20T17:54:21.153Z,2.30
2022-09-20T17:56:50.993Z,2.50
2022-09-20T17:59:19.988Z,2.50
2022-09-20T18:01:50.583Z,2.40
2022-09-20T18:04:20.815Z,2.60
2022-09-20T18:06:51.372Z,2.30
2022-09-20T18:09:22.781Z,2.50
2022-09-20T18:11:53.215Z,2.20
2022-09-20T18:14:23.755Z,2.30
2022-09-20T18:16:58.094Z,2.60
2022-09-20T18:19:32.470Z,2.80
2022-09-20T18:22:01.864Z,2.80
2022-09-20T18:24:30.760Z,3.00
2022-09-20T18:26:58.289Z,2.90
2022-09-20T18:29:25.660Z,2.70
2022-09-20T18:31:54.561Z,2.80
2022-09-20T18:34:25.532Z,3.00
2022-09-20T18:36:56.533Z,2.80
2022-09-20T18:39:27.065Z,2.50
2022-09-20T18:41:54.830Z,3.30
2022-09-20T18:44:23.368Z,2.90
2022-09-20T18:46:55.039Z,3.00
2022-09-20T18:49:22.623Z,2.80
2022-09-20T18:51:50.485Z,2.80
2022-09-20T18:54:19.022Z,3.60
2022-09-20T18:56:49.757Z,3.00
2022-09-20T18:59:20.590Z,3.50
2022-09-20T19:01:52.619Z,3.50
2022-09-20T19:05:26.826Z,3.00
2022-09-20T19:08:10.499Z,2.80
2022-09-20T19:10:54.043Z,2.90
2022-09-20T19:13:40.447Z,2.70
2022-09-20T19:16:17.016Z,2.80
2022-09-20T19:19:21.926Z,2.60
2022-09-20T19:22:15.612Z,2.80
2022-09-20T19:25:23.936Z,3.80
2022-09-20T19:27:51.642Z,3.80
2022-09-20T19:30:19.870Z,3.40
2022-09-20T19:32:48.004Z,3.00
2022-09-20T19:35:22.185Z,3.00
2022-09-20T19:38:15.350Z,3.40
2022-09-20T19:41:25.331Z,3.30
2022-09-20T19:44:25.053Z,3.30
2022-09-20T19:47:15.643Z,4.20
2022-09-20T19:49:55.253Z,3.60
2022-09-20T19:52:24.420Z,3.50
2022-09-20T19:54:52.705Z,3.70
2022-09-20T19:57:24.202Z,4.00
2022-09-20T19:59:51.943Z,3.70
2022-09-20T20:02:19.832Z,3.90
2022-09-20T20:04:47.534Z,3.50
2022-09-20T20:07:29.671Z,3.10
2022-09-20T20:10:18.517Z,3.70
2022-09-20T20:13:57.471Z,4.20
2022-09-20T20:17:02.597Z,3.70
2022-09-20T20:19:44.221Z,4.10
2022-09-20T20:22:35.135Z,3.60
2022-09-20T20:25:03.131Z,3.70
2022-09-20T20:27:32.501Z,3.30
2022-09-20T20:30:00.391Z,3.50
2022-09-20T20:32:27.717Z,3.70
2022-09-20T20:34:55.050Z,4.00
2022-09-20T20:37:24.342Z,4.30
2022-09-20T20:39:52.152Z,3.90
2022-09-20T20:42:19.652Z,4.10
2022-09-20T20:44:47.854Z,3.80
2022-09-20T20:47:15.224Z,3.40
2022-09-20T20:49:42.610Z,4.80
2022-09-20T20:52:09.921Z,4.20
2022-09-20T20:54:37.458Z,3.80
2022-09-20T20:57:04.915Z,3.60
2022-09-20T20:59:32.243Z,3.90
2022-09-20T21:02:03.393Z,3.90
2022-09-20T21:04:33.446Z,3.70
2022-09-20T21:07:01.017Z,3.80
2022-09-20T21:09:28.376Z,4.20
2022-09-20T21:11:55.684Z,4.00
2022-09-20T21:14:23.174Z,3.40
2022-09-20T21:16:51.842Z,4.10
2022-09-20T21:19:19.183Z,4.10
2022-09-20T21:21:48.007Z,3.80
2022-09-20T21:24:17.440Z,3.50
2022-09-20T21:26:48.832Z,4.50
2022-09-20T21:31:46.523Z,3.20
2022-09-20T21:34:15.962Z,3.80
2022-09-20T21:36:47.010Z,3.40
2022-09-20T21:39:14.428Z,3.60
2022-09-20T21:41:41.793Z,3.50
2022-09-20T21:44:12.477Z,3.90
2022-09-20T21:46:41.827Z,4.00
2022-09-20T21:49:11.651Z,3.40
2022-09-20T21:51:42.072Z,3.20
2022-09-20T21:54:10.052Z,3.30
2022-09-20T21:56:39.963Z,3.10
2022-09-20T21:59:07.882Z,3.00
2022-09-20T22:01:38.415Z,3.10
2022-09-20T22:04:09.477Z,3.40
2022-09-20T22:06:42.979Z,3.70
2022-09-20T22:09:17.818Z,3.30
2022-09-20T22:11:48.366Z,4.00
2022-09-20T22:14:19.852Z,3.90
2022-09-20T22:16:49.222Z,3.90
2022-09-20T22:19:18.318Z,4.00
2022-09-20T22:21:49.794Z,4.10
2022-09-20T22:24:17.871Z,4.30
2022-09-20T22:26:51.091Z,4.30
2022-09-20T22:29:18.833Z,4.60
2022-09-20T22:31:48.169Z,4.00
2022-09-20T22:34:21.785Z,5.00
2022-09-20T22:36:50.590Z,4.60
2022-09-20T22:39:18.289Z,5.30
2022-09-20T22:41:47.788Z,4.80
2022-09-20T22:44:15.224Z,4.90
2022-09-20T22:46:42.957Z,5.90
2022-09-20T22:49:10.778Z,5.00
2022-09-20T22:51:38.427Z,5.30
2022-09-20T22:54:11.439Z,4.50
2022-09-20T22:56:41.348Z,4.80
2022-09-20T22:59:13.046Z,5.60
2022-09-20T23:01:46.428Z,5.10
2022-09-20T23:04:19.854Z,4.90
2022-09-20T23:06:54.667Z,4.60
2022-09-20T23:09:28.247Z,4.80
2022-09-20T23:11:55.746Z,5.00
2022-09-20T23:14:23.406Z,4.30
2022-09-20T23:16:51.094Z,3.60
2022-09-20T23:19:18.519Z,4.30
2022-09-20T23:21:45.942Z,4.20
2022-09-20T23:24:15.781Z,4.30
2022-09-20T23:26:44.565Z,3.90
2022-09-20T23:29:15.312Z,4.00
2022-09-20T23:31:46.428Z,4.40
2022-09-20T23:34:16.137Z,3.90
2022-09-20T23:36:44.496Z,3.80
2022-09-20T23:39:13.061Z,3.80
2022-09-20T23:41:41.449Z,3.60
2022-09-20T23:44:11.429Z,3.60
2022-09-20T23:46:39.406Z,3.60
2022-09-20T23:49:07.175Z,3.20
2022-09-20T23:51:35.577Z,3.80
2022-09-20T23:54:04.030Z,3.50
2022-09-20T23:56:32.055Z,3.30
2022-09-20T23:58:59.567Z,3.50
